createdAt,value
2019-04-14T00:00:25.089Z,29.23
2019-04-14T00:02:53.418Z,28.73
2019-04-14T00:05:21.021Z,29.67
2019-04-14T00:07:47.366Z,29.47
2019-04-14T00:10:16.078Z,34.07
2019-04-14T00:12:42.710Z,30.57
2019-04-14T00:15:21.188Z,33.80
2019-04-14T00:17:39.316Z,35.70
2019-04-14T00:20:07.462Z,31.53
2019-04-14T00:22:34.024Z,32.40
2019-04-14T00:25:00.210Z,31.83
2019-04-14T00:27:28.126Z,35.00
2019-04-14T00:29:54.903Z,35.67
2019-04-14T00:32:22.582Z,33.50
2019-04-14T00:34:51.021Z,35.10
2019-04-14T00:37:31.578Z,36.37
2019-04-14T00:40:01.948Z,35.40
2019-04-14T00:42:34.095Z,36.70
2019-04-14T00:45:02.832Z,37.87
2019-04-14T00:47:31.211Z,38.73
2019-04-14T00:49:57.599Z,43.27
2019-04-14T00:52:23.983Z,41.37
2019-04-14T00:54:50.640Z,40.10
2019-04-14T00:57:17.986Z,42.20
2019-04-14T00:59:44.472Z,42.23
2019-04-14T01:02:10.807Z,39.57
2019-04-14T01:04:36.960Z,43.40
2019-04-14T01:07:04.395Z,41.53
2019-04-14T01:09:30.807Z,38.27
2019-04-14T01:11:57.956Z,40.17
2019-04-14T01:14:25.478Z,40.27
2019-04-14T01:16:51.851Z,37.03
2019-04-14T01:19:18.093Z,38.70
2019-04-14T01:21:45.663Z,39.97
2019-04-14T01:24:12.131Z,39.57
2019-04-14T01:26:38.278Z,42.63
2019-04-14T01:29:05.727Z,40.03
2019-04-14T01:31:32.009Z,40.00
2019-04-14T01:33:58.181Z,38.90
2019-04-14T01:36:25.516Z,38.80
2019-04-14T01:38:51.912Z,43.03
2019-04-14T01:41:19.237Z,43.67
2019-04-14T01:43:45.803Z,40.97
2019-04-14T01:46:18.635Z,38.90
2019-04-14T01:48:41.012Z,39.77
2019-04-14T01:51:09.278Z,41.60
2019-04-14T01:53:46.796Z,40.63
2019-04-14T01:56:32.004Z,42.17
2019-04-14T01:59:00.062Z,42.13
2019-04-14T02:01:28.237Z,41.73
2019-04-14T02:03:54.441Z,47.23
2019-04-14T02:06:20.568Z,44.60
2019-04-14T02:08:47.711Z,44.17
2019-04-14T02:11:15.865Z,45.57
2019-04-14T02:13:42.179Z,48.93
2019-04-14T02:16:18.808Z,46.73
2019-04-14T02:18:36.444Z,44.97
2019-04-14T02:21:02.572Z,47.37
2019-04-14T02:23:30.082Z,48.60
2019-04-14T02:25:57.836Z,45.30
2019-04-14T02:28:24.311Z,46.67
2019-04-14T02:31:00.145Z,43.90
2019-04-14T02:33:44.226Z,43.30
2019-04-14T02:39:01.813Z,42.43
2019-04-14T02:41:14.066Z,45.43
2019-04-14T02:43:37.639Z,42.10
2019-04-14T02:46:02.761Z,44.70
2019-04-14T02:51:06.246Z,49.43
2019-04-14T02:53:39.349Z,44.20
2019-04-14T02:56:11.972Z,42.80
2019-04-14T02:58:28.843Z,43.60
2019-04-14T03:01:01.808Z,49.03
2019-04-14T03:05:55.777Z,44.23
2019-04-14T03:10:51.519Z,46.63
2019-04-14T03:13:21.061Z,48.63
2019-04-14T03:15:53.793Z,45.43
2019-04-14T03:21:05.936Z,45.23
2019-04-14T03:23:48.917Z,42.40
2019-04-14T03:26:17.774Z,44.20
2019-04-14T03:29:05.439Z,48.57
2019-04-14T03:31:47.270Z,44.50
2019-04-14T03:41:17.219Z,46.30
2019-04-14T03:43:39.338Z,43.50
2019-04-14T03:46:17.398Z,41.50
2019-04-14T03:51:13.734Z,40.80
2019-04-14T03:53:32.141Z,43.50
2019-04-14T03:55:55.358Z,38.70
2019-04-14T03:58:18.122Z,39.30
2019-04-14T04:00:44.598Z,39.50
2019-04-14T04:03:11.057Z,39.23
2019-04-14T04:05:37.399Z,37.83
2019-04-14T04:08:04.966Z,37.63
2019-04-14T04:10:31.916Z,40.00
2019-04-14T04:12:58.051Z,36.57
2019-04-14T04:15:24.211Z,42.23
2019-04-14T04:18:11.229Z,37.63
2019-04-14T04:20:52.430Z,35.97
2019-04-14T04:23:31.159Z,36.73
2019-04-14T04:26:02.219Z,34.10
2019-04-14T04:28:39.252Z,38.17
2019-04-14T04:31:07.348Z,38.43
2019-04-14T04:33:47.921Z,41.47
2019-04-14T04:36:16.122Z,38.23
2019-04-14T04:39:01.778Z,45.80
2019-04-14T04:41:29.806Z,38.90
2019-04-14T04:43:56.135Z,41.67
2019-04-14T04:46:22.315Z,40.53
2019-04-14T04:49:01.934Z,42.50
2019-04-14T04:51:16.512Z,43.50
2019-04-14T04:53:42.665Z,44.07
2019-04-14T04:56:09.992Z,46.43
2019-04-14T04:58:37.144Z,45.10
2019-04-14T05:01:03.806Z,46.03
2019-04-14T05:03:29.952Z,44.53
2019-04-14T05:06:02.896Z,40.37
2019-04-14T05:08:29.037Z,44.73
2019-04-14T05:11:03.276Z,42.50
2019-04-14T05:13:31.458Z,42.50
2019-04-14T05:15:57.890Z,45.07
2019-04-14T05:18:24.680Z,48.03
2019-04-14T05:20:51.358Z,50.60
2019-04-14T05:23:17.503Z,53.07
2019-04-14T05:25:43.650Z,52.77
2019-04-14T05:28:09.790Z,45.23
2019-04-14T05:30:37.077Z,45.03
2019-04-14T05:33:03.391Z,43.40
2019-04-14T05:35:29.542Z,41.50
2019-04-14T05:37:55.688Z,47.60
2019-04-14T05:40:23.381Z,47.13
2019-04-14T05:42:49.735Z,40.80
2019-04-14T05:45:15.950Z,44.77
2019-04-14T05:47:42.094Z,49.07
2019-04-14T05:50:09.520Z,46.53
2019-04-14T05:52:36.153Z,52.30
2019-04-14T05:55:04.536Z,58.20
2019-04-14T05:57:30.822Z,53.20
2019-04-14T05:59:57.039Z,54.93
2019-04-14T06:02:24.428Z,48.37
2019-04-14T06:04:50.994Z,54.93
2019-04-14T06:07:17.382Z,53.43
2019-04-14T06:09:43.533Z,49.50
2019-04-14T06:12:09.685Z,51.10
2019-04-14T06:14:35.842Z,50.20
2019-04-14T06:17:01.996Z,51.10
2019-04-14T06:19:37.106Z,50.60
2019-04-14T06:21:56.213Z,47.17
2019-04-14T06:24:22.361Z,47.23
2019-04-14T06:26:48.743Z,52.70
2019-04-14T06:29:15.171Z,52.20
2019-04-14T06:31:52.603Z,53.47
2019-04-14T06:34:26.719Z,45.87
2019-04-14T06:37:00.778Z,46.23
2019-04-14T06:39:28.843Z,48.87
2019-04-14T06:41:55.001Z,48.83
2019-04-14T06:44:21.189Z,50.07
2019-04-14T06:46:48.151Z,54.23
2019-04-14T06:49:14.307Z,49.63
2019-04-14T06:51:40.478Z,48.97
2019-04-14T06:54:06.650Z,51.53
2019-04-14T06:56:32.802Z,49.73
2019-04-14T06:58:58.938Z,57.77
2019-04-14T07:01:25.426Z,50.90
2019-04-14T07:03:51.592Z,51.50
2019-04-14T07:06:17.738Z,53.30
2019-04-14T07:08:43.875Z,51.27
2019-04-14T07:11:10.026Z,52.03
2019-04-14T07:13:36.158Z,47.57
2019-04-14T07:16:02.642Z,52.40
2019-04-14T07:18:28.795Z,50.60
2019-04-14T07:20:54.954Z,47.87
2019-04-14T07:23:21.131Z,45.23
2019-04-14T07:25:47.615Z,45.80
2019-04-14T07:28:13.801Z,47.23
2019-04-14T07:30:41.953Z,44.57
2019-04-14T07:33:26.441Z,46.30
2019-04-14T07:36:10.883Z,42.97
2019-04-14T07:38:44.807Z,45.37
2019-04-14T07:41:15.614Z,42.57
2019-04-14T07:43:52.167Z,41.53
2019-04-14T07:46:20.207Z,43.17
2019-04-14T07:48:54.396Z,42.80
2019-04-14T07:51:25.198Z,40.80
2019-04-14T07:53:53.475Z,44.30
2019-04-14T07:56:27.442Z,38.47
2019-04-14T07:58:56.491Z,40.40
2019-04-14T08:01:27.278Z,39.80
2019-04-14T08:04:11.549Z,38.17
2019-04-14T08:06:38.493Z,36.50
2019-04-14T08:09:05.988Z,35.83
2019-04-14T08:11:32.235Z,36.00
2019-04-14T08:13:58.375Z,33.77
2019-04-14T08:16:24.526Z,34.37
2019-04-14T08:18:50.783Z,28.57
2019-04-14T08:21:16.930Z,31.20
2019-04-14T08:23:43.084Z,29.67
2019-04-14T08:26:09.220Z,26.43
2019-04-14T08:28:35.383Z,28.70
2019-04-14T08:31:01.523Z,26.43
2019-04-14T08:33:27.660Z,26.17
2019-04-14T08:35:53.806Z,26.63
2019-04-14T08:38:20.082Z,26.43
2019-04-14T08:40:46.219Z,26.00
2019-04-14T08:43:14.502Z,27.17
2019-04-14T08:45:45.303Z,27.07
2019-04-14T08:48:13.382Z,25.87
2019-04-14T08:50:50.106Z,30.60
2019-04-14T08:53:24.383Z,26.55
2019-04-14T08:55:55.682Z,24.80
2019-04-14T08:58:32.450Z,26.97
2019-04-14T09:01:03.246Z,24.80
2019-04-14T09:03:43.462Z,25.93
2019-04-14T09:06:14.031Z,27.50
2019-04-14T09:09:00.230Z,24.87
2019-04-14T09:11:28.266Z,25.07
2019-04-14T09:13:54.809Z,25.50
2019-04-14T09:16:20.950Z,21.10
2019-04-14T09:18:47.093Z,21.10
2019-04-14T09:21:13.334Z,23.97
2019-04-14T09:23:39.494Z,24.53
2019-04-14T09:26:05.698Z,22.80
2019-04-14T09:28:31.839Z,20.93
2019-04-14T09:30:57.990Z,20.30
2019-04-14T09:33:24.131Z,20.93
2019-04-14T09:35:50.327Z,20.67
2019-04-14T09:38:16.467Z,19.63
2019-04-14T09:40:42.622Z,18.03
2019-04-14T09:43:08.997Z,21.13
2019-04-14T09:45:35.307Z,19.13
2019-04-14T09:48:01.455Z,18.63
2019-04-14T09:50:27.608Z,19.77
2019-04-14T09:52:54.067Z,19.30
2019-04-14T09:55:20.220Z,18.33
2019-04-14T09:57:46.401Z,19.43
2019-04-14T10:00:14.047Z,19.33
2019-04-14T10:02:40.199Z,18.13
2019-04-14T10:05:06.445Z,18.33
2019-04-14T10:07:32.794Z,17.93
2019-04-14T10:09:59.040Z,16.77
2019-04-14T10:12:25.291Z,16.70
2019-04-14T10:14:51.764Z,18.30
2019-04-14T10:17:18.915Z,21.17
2019-04-14T10:19:45.076Z,17.80
2019-04-14T10:22:11.216Z,16.80
2019-04-14T10:24:37.399Z,16.80
2019-04-14T10:27:03.548Z,18.97
2019-04-14T10:29:29.874Z,16.87
2019-04-14T10:31:56.028Z,17.77
2019-04-14T10:34:22.450Z,16.57
2019-04-14T10:36:48.626Z,17.03
2019-04-14T10:39:14.752Z,17.33
2019-04-14T10:41:40.905Z,20.00
2019-04-14T10:44:07.279Z,18.30
2019-04-14T10:46:33.551Z,18.67
2019-04-14T10:48:59.733Z,17.23
2019-04-14T10:51:30.371Z,17.83
2019-04-14T10:53:54.498Z,16.77
2019-04-14T10:56:20.668Z,17.60
2019-04-14T10:58:46.862Z,18.70
2019-04-14T11:01:13.166Z,15.07
2019-04-14T11:03:39.627Z,16.67
2019-04-14T11:06:07.712Z,18.03
2019-04-14T11:08:33.890Z,15.30
2019-04-14T11:11:00.115Z,14.87
2019-04-14T11:13:26.259Z,14.90
2019-04-14T11:15:52.423Z,16.93
2019-04-14T11:18:18.567Z,17.07
2019-04-14T11:20:44.755Z,15.27
2019-04-14T11:23:11.182Z,16.47
2019-04-14T11:25:37.621Z,14.60
2019-04-14T11:28:03.774Z,16.03
2019-04-14T11:30:29.940Z,17.50
2019-04-14T11:33:03.973Z,18.20
2019-04-14T11:35:37.892Z,17.43
2019-04-14T11:38:15.490Z,16.27
2019-04-14T11:40:52.151Z,16.40
2019-04-14T11:43:19.424Z,14.77
2019-04-14T11:45:45.563Z,16.53
2019-04-14T11:48:11.719Z,17.03
2019-04-14T11:50:38.202Z,14.47
2019-04-14T11:53:04.413Z,15.13
2019-04-14T11:55:30.598Z,14.20
2019-04-14T11:57:56.774Z,16.97
2019-04-14T12:00:30.705Z,15.57
2019-04-14T12:03:17.198Z,17.90
2019-04-14T12:05:45.246Z,13.90
2019-04-14T12:08:28.455Z,14.97
2019-04-14T12:10:54.627Z,15.00
2019-04-14T12:13:20.785Z,15.80
2019-04-14T12:15:47.271Z,16.27
2019-04-14T12:18:13.426Z,14.10
2019-04-14T12:20:39.686Z,16.17
2019-04-14T12:23:05.851Z,13.93
2019-04-14T12:25:32.006Z,17.00
2019-04-14T12:27:58.179Z,16.57
2019-04-14T12:30:24.542Z,20.17
2019-04-14T12:32:50.701Z,16.77
2019-04-14T12:35:17.258Z,17.23
2019-04-14T12:37:43.414Z,14.90
2019-04-14T12:40:10.516Z,16.37
2019-04-14T12:42:47.619Z,14.50
2019-04-14T12:45:31.213Z,13.33
2019-04-14T12:47:59.269Z,14.83
2019-04-14T12:50:27.337Z,18.30
2019-04-14T12:52:53.686Z,16.33
2019-04-14T12:55:20.106Z,15.17
2019-04-14T12:57:47.925Z,19.30
2019-04-14T13:00:16.271Z,15.27
2019-04-14T13:02:44.362Z,16.33
2019-04-14T13:05:10.744Z,15.43
2019-04-14T13:07:37.036Z,14.27
2019-04-14T13:10:05.890Z,14.60
2019-04-14T13:12:32.054Z,14.30
2019-04-14T13:14:58.198Z,17.13
2019-04-14T13:17:24.355Z,17.77
2019-04-14T13:19:50.506Z,16.20
2019-04-14T13:22:17.004Z,18.87
2019-04-14T13:24:43.172Z,16.57
2019-04-14T13:27:09.332Z,16.83
2019-04-14T13:29:36.472Z,17.43
2019-04-14T13:32:02.928Z,19.13
2019-04-14T13:34:29.079Z,17.17
2019-04-14T13:36:55.235Z,16.67
2019-04-14T13:39:21.374Z,17.83
2019-04-14T13:41:47.551Z,18.00
2019-04-14T13:44:13.686Z,18.07
2019-04-14T13:46:39.963Z,16.70
2019-04-14T13:49:06.092Z,20.83
2019-04-14T13:51:32.288Z,18.07
2019-04-14T13:53:58.452Z,17.73
2019-04-14T13:56:24.622Z,16.43
2019-04-14T13:58:50.775Z,19.23
2019-04-14T14:01:17.227Z,19.37
2019-04-14T14:03:43.680Z,19.23
2019-04-14T14:06:10.352Z,17.00
2019-04-14T14:08:36.667Z,18.17
2019-04-14T14:11:10.971Z,18.73
2019-04-14T14:13:39.028Z,18.73
2019-04-14T14:16:16.433Z,18.50
2019-04-14T14:18:44.642Z,16.83
2019-04-14T14:21:15.198Z,17.17
2019-04-14T14:23:46.084Z,17.77
2019-04-14T14:26:17.723Z,17.73
2019-04-14T14:28:43.963Z,19.40
2019-04-14T14:31:10.119Z,16.67
2019-04-14T14:33:36.331Z,17.53
2019-04-14T14:36:02.509Z,17.27
2019-04-14T14:38:29.047Z,18.37
2019-04-14T14:40:57.057Z,19.57
2019-04-14T14:43:23.208Z,18.30
2019-04-14T14:45:51.254Z,17.17
2019-04-14T14:48:22.055Z,19.13
2019-04-14T14:50:50.106Z,18.03
2019-04-14T14:53:16.490Z,18.83
2019-04-14T14:55:42.640Z,15.97
2019-04-14T14:58:09.022Z,17.63
2019-04-14T15:00:35.160Z,17.87
2019-04-14T15:03:02.996Z,16.83
2019-04-14T15:05:29.258Z,16.23
2019-04-14T15:07:55.657Z,16.60
2019-04-14T15:10:21.826Z,15.80
2019-04-14T15:12:47.984Z,18.43
2019-04-14T15:15:14.419Z,16.20
2019-04-14T15:17:40.586Z,16.73
2019-04-14T15:20:08.818Z,18.10
2019-04-14T15:22:34.978Z,17.20
2019-04-14T15:25:01.131Z,16.80
2019-04-14T15:27:27.276Z,16.73
2019-04-14T15:29:53.650Z,20.20
2019-04-14T15:32:19.782Z,17.77
2019-04-14T15:34:45.954Z,16.97
2019-04-14T15:37:12.090Z,18.23
2019-04-14T15:39:39.578Z,17.07
2019-04-14T15:42:06.012Z,16.33
2019-04-14T15:44:32.163Z,14.43
2019-04-14T15:46:58.293Z,15.20
2019-04-14T15:49:24.451Z,15.47
2019-04-14T15:51:50.607Z,14.27
2019-04-14T15:54:16.742Z,15.10
2019-04-14T15:56:51.270Z,15.23
2019-04-14T15:59:19.353Z,15.60
2019-04-14T16:02:02.494Z,15.03
2019-04-14T16:04:30.840Z,17.67
2019-04-14T16:07:14.344Z,15.63
2019-04-14T16:09:42.492Z,18.83
2019-04-14T16:12:13.385Z,17.20
2019-04-14T16:14:41.448Z,15.27
2019-04-14T16:17:22.091Z,15.27
2019-04-14T16:19:55.644Z,15.50
2019-04-14T16:22:21.779Z,16.13
2019-04-14T16:24:48.426Z,15.20
2019-04-14T16:27:19.843Z,17.33
2019-04-14T16:29:50.442Z,15.00
2019-04-14T16:32:18.495Z,16.20
2019-04-14T16:34:46.577Z,15.17
2019-04-14T16:37:12.738Z,18.77
2019-04-14T16:39:38.927Z,14.03
2019-04-14T16:42:05.271Z,14.27
2019-04-14T16:44:31.422Z,14.13
2019-04-14T16:46:57.695Z,14.60
2019-04-14T16:49:24.071Z,13.20
2019-04-14T16:52:10.329Z,14.73
2019-04-14T16:54:44.715Z,14.80
2019-04-14T16:57:12.776Z,14.20
2019-04-14T16:59:38.935Z,13.27
2019-04-14T17:02:10.751Z,17.13
2019-04-14T17:04:33.251Z,15.23
2019-04-14T17:06:59.414Z,12.87
2019-04-14T17:09:25.551Z,14.60
2019-04-14T17:11:51.715Z,15.37
2019-04-14T17:14:32.056Z,15.70
2019-04-14T17:17:00.095Z,15.03
2019-04-14T17:19:34.244Z,15.87
2019-04-14T17:22:04.871Z,15.33
2019-04-14T17:24:33.238Z,15.13
2019-04-14T17:27:18.985Z,16.13
2019-04-14T17:30:03.954Z,17.80
2019-04-14T17:32:32.212Z,17.83
2019-04-14T17:35:12.154Z,15.87
2019-04-14T17:37:40.247Z,18.57
2019-04-14T17:40:11.570Z,18.47
2019-04-14T17:42:56.291Z,17.67
2019-04-14T17:45:33.494Z,17.20
2019-04-14T17:48:04.559Z,18.00
2019-04-14T17:50:40.806Z,15.27
2019-04-14T17:53:09.040Z,15.20
2019-04-14T17:55:49.991Z,15.83
2019-04-14T17:58:34.719Z,16.43
2019-04-14T18:01:05.864Z,17.37
2019-04-14T18:03:43.075Z,15.97
2019-04-14T18:06:11.102Z,14.70
2019-04-14T18:08:41.916Z,15.63
2019-04-14T18:11:13.051Z,18.30
2019-04-14T18:13:46.677Z,18.70
2019-04-14T18:16:20.906Z,14.40
2019-04-14T18:19:03.890Z,15.67
2019-04-14T18:21:30.399Z,15.83
2019-04-14T18:23:56.537Z,19.43
2019-04-14T18:26:22.690Z,14.60
2019-04-14T18:28:59.818Z,15.00
2019-04-14T18:31:36.946Z,15.53
2019-04-14T18:34:17.234Z,15.37
2019-04-14T18:36:47.811Z,14.13
2019-04-14T18:39:32.589Z,14.70
2019-04-14T18:42:00.640Z,13.63
2019-04-14T18:44:28.698Z,14.67
2019-04-14T18:47:12.893Z,14.87
2019-04-14T18:49:40.934Z,14.73
2019-04-14T18:52:25.944Z,14.63
2019-04-14T18:54:56.529Z,15.27
2019-04-14T18:57:33.094Z,14.37
2019-04-14T19:00:01.170Z,15.70
2019-04-14T19:02:27.335Z,15.73
2019-04-14T19:04:53.489Z,16.57
2019-04-14T19:07:19.828Z,15.63
2019-04-14T19:09:46.400Z,15.07
2019-04-14T19:12:20.446Z,13.10
2019-04-14T19:14:48.508Z,14.50
2019-04-14T19:17:28.472Z,16.03
2019-04-14T19:20:02.033Z,13.53
2019-04-14T19:22:24.566Z,14.63
2019-04-14T19:24:50.740Z,14.00
2019-04-14T19:27:17.105Z,16.20
2019-04-14T19:29:43.480Z,13.60
2019-04-14T19:32:09.627Z,16.43
2019-04-14T19:34:35.802Z,13.67
2019-04-14T19:37:01.971Z,16.43
2019-04-14T19:39:29.122Z,15.77
2019-04-14T19:41:55.250Z,15.97
2019-04-14T19:44:21.407Z,17.20
2019-04-14T19:46:47.560Z,17.40
2019-04-14T19:49:13.957Z,16.03
2019-04-14T19:51:40.112Z,14.43
2019-04-14T19:54:06.238Z,15.30
2019-04-14T19:56:32.390Z,14.83
2019-04-14T19:58:58.530Z,16.73
2019-04-14T20:01:24.687Z,15.67
2019-04-14T20:03:50.833Z,15.60
2019-04-14T20:06:16.977Z,16.47
2019-04-14T20:08:43.392Z,17.37
2019-04-14T20:11:09.638Z,15.50
2019-04-14T20:13:40.277Z,14.30
2019-04-14T20:16:24.998Z,15.57
2019-04-14T20:18:55.846Z,17.17
2019-04-14T20:21:39.174Z,15.43
2019-04-14T20:24:10.031Z,16.67
2019-04-14T20:26:50.122Z,16.97
2019-04-14T20:29:18.447Z,15.03
2019-04-14T20:31:49.875Z,18.45
2019-04-14T20:34:16.002Z,17.07
2019-04-14T20:36:42.172Z,14.60
2019-04-14T20:39:10.222Z,13.80
2019-04-14T20:41:36.773Z,13.23
2019-04-14T20:44:03.055Z,13.53
2019-04-14T20:46:29.283Z,14.87
2019-04-14T20:48:55.650Z,14.13
2019-04-14T20:51:21.807Z,11.97
2019-04-14T20:53:47.962Z,12.53
2019-04-14T20:56:14.443Z,13.37
2019-04-14T20:58:40.592Z,13.20
2019-04-14T21:01:08.242Z,12.00
2019-04-14T21:03:36.296Z,12.70
2019-04-14T21:06:10.121Z,12.53
2019-04-14T21:08:50.310Z,12.23
2019-04-14T21:11:21.118Z,12.63
2019-04-14T21:13:58.996Z,10.63
2019-04-14T21:16:41.867Z,12.00
2019-04-14T21:19:17.526Z,12.33
2019-04-14T21:21:45.796Z,12.60
2019-04-14T21:24:22.949Z,12.87
2019-04-14T21:27:06.367Z,14.20
2019-04-14T21:29:43.231Z,15.10
2019-04-14T21:32:20.070Z,14.73
2019-04-14T21:34:48.395Z,13.63
2019-04-14T21:37:18.950Z,14.07
2019-04-14T21:39:47.022Z,13.43
2019-04-14T21:42:14.142Z,17.20
2019-04-14T21:44:40.295Z,14.13
2019-04-14T21:47:06.532Z,14.30
2019-04-14T21:49:32.680Z,13.53
2019-04-14T21:52:00.793Z,12.30
2019-04-14T21:54:26.990Z,13.57
2019-04-14T21:57:01.050Z,12.53
2019-04-14T21:59:32.138Z,15.07
2019-04-14T22:02:03.018Z,12.83
2019-04-14T22:04:43.598Z,14.90
2019-04-14T22:07:14.750Z,15.17
2019-04-14T22:09:41.212Z,14.20
2019-04-14T22:12:07.746Z,13.33
2019-04-14T22:14:33.915Z,13.17
2019-04-14T22:17:00.063Z,13.97
2019-04-14T22:19:26.311Z,16.10
2019-04-14T22:21:52.455Z,15.43
2019-04-14T22:24:18.621Z,16.17
2019-04-14T22:26:44.779Z,19.00
2019-04-14T22:29:10.924Z,14.43
2019-04-14T22:31:37.068Z,14.40
2019-04-14T22:34:03.415Z,15.37
2019-04-14T22:36:29.577Z,13.67
2019-04-14T22:38:55.762Z,16.07
2019-04-14T22:41:22.563Z,14.20
2019-04-14T22:43:48.716Z,15.00
2019-04-14T22:46:14.863Z,15.53
2019-04-14T22:48:41.013Z,15.90
2019-04-14T22:51:07.152Z,14.67
2019-04-14T22:53:33.285Z,15.57
2019-04-14T22:55:59.438Z,16.73
2019-04-14T22:58:25.587Z,15.90
2019-04-14T23:00:56.406Z,14.07
2019-04-14T23:03:30.324Z,16.57
2019-04-14T23:06:10.317Z,14.70
2019-04-14T23:08:38.367Z,15.03
2019-04-14T23:11:18.831Z,14.63
2019-04-14T23:13:46.863Z,14.57
2019-04-14T23:16:27.074Z,14.53
2019-04-14T23:19:11.258Z,14.00
2019-04-14T23:21:39.566Z,15.07
2019-04-14T23:24:13.251Z,14.47
2019-04-14T23:26:51.469Z,13.87
2019-04-14T23:29:07.437Z,14.50
2019-04-14T23:31:33.569Z,14.73
2019-04-14T23:33:59.700Z,13.83
2019-04-14T23:36:25.842Z,15.13
2019-04-14T23:38:52.975Z,14.13
2019-04-14T23:41:19.354Z,15.03
2019-04-14T23:43:45.499Z,15.63
2019-04-14T23:46:11.636Z,14.00
2019-04-14T23:48:37.788Z,15.20
2019-04-14T23:51:04.023Z,15.47
2019-04-14T23:53:30.182Z,15.43
2019-04-14T23:55:56.548Z,16.60
2019-04-14T23:58:22.796Z,17.67
